RUM2506 SBGR-SBSG
Flight info
| Callsign | RUM2506 |
|---|---|
| Flight time | 2h 54m |
| Altitude | 41000 |
| Route | VUMEV UZ14 ENVOG UZ1 LODOT UZ72 TOGUN |
| Aircraft | A333/H-SDE3GHIJ2J3J5M1RVWXY/LB2D1 |
Departure
| Time | 2026-05-03 21:00 |
|---|---|
| Airport | São Paulo/Guarulhos–Governor André Franco Montoro International Airport (SBGR) |
Arrival
| Time | 2026-05-03 23:54 |
|---|---|
| Airport | Rio Grande do Norte/São Gonçalo do Amarante–Governador Aluízio Alves International Airport (SBSG) |
| Time | Latitude | Longitude | Altitude | Speed | Heading |
|---|---|---|---|---|---|
| 2026-05-03 20:21 | -23.42760 | -46.47429 | 2464 ft | 0 kts | 73° |
| 2026-05-03 20:21 | -23.42621 | -46.47475 | 2471 ft | 0 kts | 73° |
| 2026-05-03 20:44 | -23.42625 | -46.47489 | 2470 ft | 4 kts | 77° |
| 2026-05-03 20:44 | -23.42629 | -46.47518 | 2471 ft | 4 kts | 93° |
| 2026-05-03 20:44 | -23.42624 | -46.47546 | 2467 ft | 4 kts | 114° |
| 2026-05-03 20:45 | -23.42611 | -46.47569 | 2469 ft | 4 kts | 135° |
| 2026-05-03 20:45 | -23.42590 | -46.47587 | 2465 ft | 4 kts | 146° |
| 2026-05-03 20:45 | -23.42592 | -46.47587 | 2465 ft | 4 kts | 152° |
| 2026-05-03 20:45 | -23.42615 | -46.47579 | 2465 ft | 0 kts | 165° |
| 2026-05-03 20:51 | -23.42634 | -46.47573 | 2468 ft | 3 kts | 162° |
| 2026-05-03 20:52 | -23.42650 | -46.47567 | 2469 ft | 2 kts | 161° |
| 2026-05-03 20:52 | -23.42663 | -46.47562 | 2465 ft | 3 kts | 160° |
| 2026-05-03 20:52 | -23.42699 | -46.47547 | 2469 ft | 7 kts | 159° |
| 2026-05-03 20:52 | -23.42741 | -46.47530 | 2464 ft | 6 kts | 163° |
| 2026-05-03 20:53 | -23.42777 | -46.47521 | 2466 ft | 5 kts | 167° |
| 2026-05-03 20:53 | -23.42811 | -46.47512 | 2464 ft | 6 kts | 163° |
| 2026-05-03 20:53 | -23.42856 | -46.47496 | 2464 ft | 8 kts | 162° |
| 2026-05-03 20:53 | -23.42905 | -46.47478 | 2469 ft | 3 kts | 168° |
| 2026-05-03 20:54 | -23.42927 | -46.47489 | 2464 ft | 4 kts | 219° |
| 2026-05-03 20:54 | -23.42953 | -46.47542 | 2464 ft | 7 kts | 249° |
| 2026-05-03 20:54 | -23.42975 | -46.47614 | 2464 ft | 14 kts | 252° |
| 2026-05-03 20:55 | -23.43012 | -46.47750 | 2468 ft | 23 kts | 254° |
| 2026-05-03 20:55 | -23.43055 | -46.47911 | 2464 ft | 21 kts | 254° |
| 2026-05-03 20:55 | -23.43096 | -46.48062 | 2464 ft | 20 kts | 253° |
| 2026-05-03 20:55 | -23.43134 | -46.48201 | 2469 ft | 19 kts | 253° |
| 2026-05-03 20:56 | -23.43166 | -46.48319 | 2466 ft | 15 kts | 252° |
| 2026-05-03 20:56 | -23.43218 | -46.48378 | 2467 ft | 10 kts | 191° |
| 2026-05-03 20:56 | -23.43281 | -46.48369 | 2464 ft | 4 kts | 167° |
| 2026-05-03 20:56 | -23.43282 | -46.48369 | 2464 ft | 0 kts | 167° |
| 2026-05-03 20:57 | -23.43283 | -46.48369 | 2464 ft | 0 kts | 167° |
| 2026-05-03 20:57 | -23.43290 | -46.48367 | 2466 ft | 4 kts | 166° |
| 2026-05-03 20:57 | -23.43332 | -46.48354 | 2463 ft | 9 kts | 163° |
| 2026-05-03 20:58 | -23.43389 | -46.48327 | 2466 ft | 9 kts | 135° |
| 2026-05-03 20:58 | -23.43401 | -46.48277 | 2465 ft | 0 kts | 85° |
| 2026-05-03 20:58 | -23.43401 | -46.48258 | 2461 ft | 5 kts | 87° |
| 2026-05-03 20:58 | -23.43387 | -46.48185 | 2466 ft | 23 kts | 76° |
| 2026-05-03 20:59 | -23.43284 | -46.47799 | 2461 ft | 81 kts | 72° |
| 2026-05-03 20:59 | -23.43072 | -46.47023 | 2466 ft | 131 kts | 74° |
| 2026-05-03 20:59 | -23.42780 | -46.45921 | 2468 ft | 173 kts | 75° |
| 2026-05-03 20:59 | -23.42457 | -46.44651 | 3007 ft | 175 kts | 75° |
| 2026-05-03 21:00 | -23.42143 | -46.43356 | 3574 ft | 173 kts | 76° |
| 2026-05-03 21:00 | -23.42036 | -46.42931 | 3805 ft | 172 kts | 74° |
| 2026-05-03 21:00 | -23.41385 | -46.40799 | 4609 ft | 187 kts | 71° |
| 2026-05-03 21:00 | -23.40893 | -46.39410 | 4886 ft | 207 kts | 71° |
| 2026-05-03 21:01 | -23.40417 | -46.37853 | 5182 ft | 227 kts | 73° |
| 2026-05-03 21:01 | -23.39844 | -46.36161 | 5444 ft | 249 kts | 65° |
| 2026-05-03 21:01 | -23.38982 | -46.34492 | 5814 ft | 264 kts | 59° |
| 2026-05-03 21:01 | -23.37971 | -46.32735 | 6417 ft | 276 kts | 58° |
| 2026-05-03 21:02 | -23.36940 | -46.30967 | 7254 ft | 279 kts | 58° |
| 2026-05-03 21:02 | -23.35891 | -46.29172 | 8115 ft | 282 kts | 57° |
| 2026-05-03 21:02 | -23.34847 | -46.27382 | 8957 ft | 286 kts | 58° |
| 2026-05-03 21:02 | -23.33786 | -46.25555 | 9766 ft | 289 kts | 57° |
| 2026-05-03 21:03 | -23.32697 | -46.23684 | 10514 ft | 296 kts | 57° |
| 2026-05-03 21:03 | -23.31756 | -46.22065 | 10832 ft | 313 kts | 58° |
| 2026-05-03 21:03 | -23.31222 | -46.21147 | 10959 ft | 324 kts | 57° |
| 2026-05-03 21:03 | -23.29984 | -46.19015 | 11330 ft | 341 kts | 57° |
| 2026-05-03 21:04 | -23.28845 | -46.17052 | 11827 ft | 350 kts | 58° |
| 2026-05-03 21:04 | -23.27535 | -46.14784 | 12460 ft | 358 kts | 58° |
| 2026-05-03 21:04 | -23.26188 | -46.12449 | 13193 ft | 366 kts | 57° |
| 2026-05-03 21:04 | -23.24845 | -46.10145 | 13976 ft | 366 kts | 57° |
| 2026-05-03 21:05 | -23.23456 | -46.07763 | 14632 ft | 371 kts | 57° |
| 2026-05-03 21:05 | -23.21958 | -46.05462 | 15220 ft | 375 kts | 47° |
| 2026-05-03 21:05 | -23.19992 | -46.03678 | 15792 ft | 377 kts | 28° |
| 2026-05-03 21:05 | -23.17621 | -46.02527 | 16406 ft | 379 kts | 19° |
| 2026-05-03 21:06 | -23.15088 | -46.01547 | 17011 ft | 382 kts | 18° |
| 2026-05-03 21:06 | -23.12543 | -46.00714 | 17579 ft | 384 kts | 10° |
| 2026-05-03 21:06 | -23.09925 | -46.00273 | 18105 ft | 387 kts | 5° |
| 2026-05-03 21:06 | -23.07245 | -45.99949 | 18638 ft | 390 kts | 4° |
| 2026-05-03 21:07 | -23.04532 | -45.99635 | 19144 ft | 394 kts | 4° |
| 2026-05-03 21:07 | -23.01800 | -45.99314 | 19635 ft | 397 kts | 4° |
| 2026-05-03 21:07 | -22.99034 | -45.98986 | 20101 ft | 401 kts | 4° |
| 2026-05-03 21:07 | -22.96253 | -45.98651 | 20588 ft | 405 kts | 4° |
| 2026-05-03 21:08 | -22.93435 | -45.98310 | 21043 ft | 408 kts | 4° |
| 2026-05-03 21:08 | -22.90620 | -45.97832 | 21493 ft | 414 kts | 11° |
| 2026-05-03 21:08 | -22.87867 | -45.96827 | 21953 ft | 421 kts | 22° |
| 2026-05-03 21:08 | -22.85280 | -45.95283 | 22380 ft | 426 kts | 29° |
| 2026-05-03 21:09 | -22.82784 | -45.93528 | 22773 ft | 431 kts | 32° |
| 2026-05-03 21:09 | -22.80326 | -45.91666 | 23185 ft | 434 kts | 33° |
| 2026-05-03 21:09 | -22.77860 | -45.89744 | 23579 ft | 437 kts | 34° |
| 2026-05-03 21:09 | -22.75377 | -45.87806 | 23974 ft | 441 kts | 33° |
| 2026-05-03 21:10 | -22.72874 | -45.85878 | 24357 ft | 442 kts | 33° |
| 2026-05-03 21:10 | -22.70353 | -45.83954 | 24696 ft | 446 kts | 32° |
| 2026-05-03 21:10 | -22.67799 | -45.82019 | 25114 ft | 448 kts | 32° |
| 2026-05-03 21:10 | -22.65243 | -45.80088 | 25531 ft | 449 kts | 32° |
| 2026-05-03 21:11 | -22.62670 | -45.78152 | 25897 ft | 452 kts | 32° |
| 2026-05-03 21:11 | -22.60076 | -45.76208 | 26294 ft | 454 kts | 32° |
| 2026-05-03 21:11 | -22.57479 | -45.74261 | 26655 ft | 456 kts | 32° |
| 2026-05-03 21:11 | -22.54876 | -45.72309 | 27006 ft | 458 kts | 32° |
| 2026-05-03 21:12 | -22.52248 | -45.70335 | 27348 ft | 459 kts | 32° |
| 2026-05-03 21:12 | -22.49618 | -45.68359 | 27667 ft | 462 kts | 32° |
| 2026-05-03 21:12 | -22.46966 | -45.66373 | 27975 ft | 464 kts | 32° |
| 2026-05-03 21:12 | -22.44303 | -45.64385 | 28343 ft | 466 kts | 32° |
| 2026-05-03 21:13 | -22.42537 | -45.63066 | 28572 ft | 467 kts | 32° |
| 2026-05-03 21:13 | -22.39863 | -45.61065 | 28879 ft | 469 kts | 32° |
| 2026-05-03 21:13 | -22.37174 | -45.59053 | 29173 ft | 471 kts | 31° |
| 2026-05-03 21:13 | -22.34467 | -45.57028 | 29448 ft | 473 kts | 31° |
| 2026-05-03 21:14 | -22.31769 | -45.55010 | 29761 ft | 475 kts | 31° |
| 2026-05-03 21:14 | -22.29031 | -45.52968 | 29998 ft | 477 kts | 31° |
| 2026-05-03 21:14 | -22.26295 | -45.50928 | 30232 ft | 479 kts | 31° |
| 2026-05-03 21:14 | -22.23557 | -45.48884 | 30545 ft | 480 kts | 31° |
| 2026-05-03 21:15 | -22.20803 | -45.46830 | 30799 ft | 482 kts | 31° |
| 2026-05-03 21:15 | -22.18038 | -45.44764 | 31038 ft | 484 kts | 31° |
| 2026-05-03 21:15 | -22.15260 | -45.42693 | 31279 ft | 486 kts | 31° |
| 2026-05-03 21:15 | -22.12473 | -45.40618 | 31527 ft | 488 kts | 31° |
| 2026-05-03 21:16 | -22.09677 | -45.38535 | 31827 ft | 490 kts | 31° |
| 2026-05-03 21:16 | -22.06870 | -45.36449 | 32085 ft | 490 kts | 31° |
| 2026-05-03 21:16 | -22.04063 | -45.34347 | 32306 ft | 493 kts | 32° |
| 2026-05-03 21:16 | -22.01300 | -45.32146 | 32636 ft | 493 kts | 34° |
| 2026-05-03 21:17 | -21.98602 | -45.29886 | 32958 ft | 492 kts | 35° |
| 2026-05-03 21:17 | -21.95927 | -45.27599 | 33274 ft | 491 kts | 36° |
| 2026-05-03 21:17 | -21.93256 | -45.25305 | 33580 ft | 490 kts | 36° |
| 2026-05-03 21:17 | -21.90589 | -45.23022 | 33898 ft | 489 kts | 35° |
| 2026-05-03 21:18 | -21.87926 | -45.20756 | 34183 ft | 489 kts | 35° |
| 2026-05-03 21:18 | -21.85252 | -45.18493 | 34484 ft | 488 kts | 35° |
| 2026-05-03 21:18 | -21.82587 | -45.16247 | 34761 ft | 487 kts | 35° |
| 2026-05-03 21:18 | -21.79953 | -45.14028 | 35019 ft | 487 kts | 35° |
| 2026-05-03 21:19 | -21.77287 | -45.11786 | 35284 ft | 486 kts | 35° |
| 2026-05-03 21:19 | -21.74618 | -45.09541 | 35544 ft | 486 kts | 35° |
| 2026-05-03 21:19 | -21.71964 | -45.07311 | 35761 ft | 485 kts | 35° |
| 2026-05-03 21:19 | -21.69304 | -45.05076 | 35976 ft | 486 kts | 35° |
| 2026-05-03 21:20 | -21.66640 | -45.02836 | 36256 ft | 485 kts | 35° |
| 2026-05-03 21:20 | -21.63981 | -45.00604 | 36502 ft | 484 kts | 35° |
| 2026-05-03 21:20 | -21.61323 | -44.98375 | 36707 ft | 485 kts | 35° |
| 2026-05-03 21:20 | -21.58670 | -44.96154 | 36911 ft | 484 kts | 35° |
| 2026-05-03 21:21 | -21.56009 | -44.93927 | 37149 ft | 484 kts | 35° |
| 2026-05-03 21:21 | -21.53358 | -44.91705 | 37350 ft | 484 kts | 35° |
| 2026-05-03 21:21 | -21.50705 | -44.89483 | 37557 ft | 484 kts | 35° |
| 2026-05-03 21:21 | -21.48050 | -44.87262 | 37759 ft | 483 kts | 35° |
| 2026-05-03 21:22 | -21.45398 | -44.85045 | 37944 ft | 483 kts | 35° |
| 2026-05-03 21:22 | -21.42754 | -44.82836 | 38126 ft | 482 kts | 35° |
| 2026-05-03 21:22 | -21.40101 | -44.80620 | 38320 ft | 482 kts | 35° |
| 2026-05-03 21:22 | -21.37458 | -44.78410 | 38495 ft | 482 kts | 35° |
| 2026-05-03 21:23 | -21.34818 | -44.76203 | 38683 ft | 481 kts | 35° |
| 2026-05-03 21:23 | -21.32174 | -44.73998 | 38891 ft | 481 kts | 35° |
| 2026-05-03 21:23 | -21.29541 | -44.71804 | 39063 ft | 479 kts | 35° |
| 2026-05-03 21:23 | -21.26908 | -44.69608 | 39220 ft | 480 kts | 35° |
| 2026-05-03 21:24 | -21.24279 | -44.67412 | 39384 ft | 479 kts | 35° |
| 2026-05-03 21:24 | -21.21642 | -44.65211 | 39541 ft | 478 kts | 35° |
| 2026-05-03 21:24 | -21.19022 | -44.63025 | 39686 ft | 478 kts | 35° |
| 2026-05-03 21:24 | -21.16397 | -44.60838 | 39834 ft | 478 kts | 35° |
| 2026-05-03 21:25 | -21.13773 | -44.58653 | 39951 ft | 478 kts | 35° |
| 2026-05-03 21:25 | -21.11147 | -44.56468 | 40091 ft | 477 kts | 35° |
| 2026-05-03 21:25 | -21.08537 | -44.54297 | 40221 ft | 477 kts | 35° |
| 2026-05-03 21:25 | -21.05909 | -44.52111 | 40372 ft | 476 kts | 35° |
| 2026-05-03 21:26 | -21.03301 | -44.49943 | 40520 ft | 475 kts | 35° |
| 2026-05-03 21:26 | -21.00686 | -44.47770 | 40633 ft | 475 kts | 35° |
| 2026-05-03 21:26 | -20.98099 | -44.45622 | 40771 ft | 475 kts | 35° |
| 2026-05-03 21:26 | -20.95490 | -44.43458 | 40899 ft | 474 kts | 35° |
| 2026-05-03 21:27 | -20.92886 | -44.41299 | 41037 ft | 473 kts | 35° |
| 2026-05-03 21:27 | -20.90292 | -44.39150 | 41147 ft | 473 kts | 35° |
| 2026-05-03 21:27 | -20.85075 | -44.34832 | 41230 ft | 475 kts | 35° |
| 2026-05-03 21:28 | -20.79889 | -44.30543 | 41234 ft | 474 kts | 35° |
| 2026-05-03 21:28 | -20.74643 | -44.26207 | 41229 ft | 473 kts | 35° |
| 2026-05-03 21:29 | -20.69443 | -44.21914 | 41226 ft | 473 kts | 35° |
| 2026-05-03 21:29 | -20.64284 | -44.17657 | 41219 ft | 473 kts | 35° |
| 2026-05-03 21:30 | -20.59109 | -44.13327 | 41217 ft | 473 kts | 36° |
| 2026-05-03 21:30 | -20.53929 | -44.08952 | 41212 ft | 472 kts | 36° |
| 2026-05-03 21:31 | -20.48798 | -44.04649 | 41206 ft | 472 kts | 35° |
| 2026-05-03 21:31 | -20.43597 | -44.00384 | 41201 ft | 472 kts | 34° |
| 2026-05-03 21:32 | -20.38382 | -43.96133 | 41192 ft | 471 kts | 34° |
| 2026-05-03 21:32 | -20.33176 | -43.91885 | 41186 ft | 471 kts | 34° |
| 2026-05-03 21:33 | -20.27983 | -43.87646 | 41178 ft | 471 kts | 34° |
| 2026-05-03 21:33 | -20.22779 | -43.83398 | 41171 ft | 471 kts | 34° |
| 2026-05-03 21:34 | -20.17578 | -43.79157 | 41164 ft | 471 kts | 34° |
| 2026-05-03 21:34 | -20.12376 | -43.74920 | 41167 ft | 471 kts | 34° |
| 2026-05-03 21:35 | -20.07165 | -43.70679 | 41157 ft | 471 kts | 34° |
| 2026-05-03 21:35 | -20.01965 | -43.66450 | 41155 ft | 471 kts | 34° |
| 2026-05-03 21:36 | -19.96753 | -43.62215 | 41155 ft | 471 kts | 34° |
| 2026-05-03 21:36 | -19.91557 | -43.57997 | 41156 ft | 470 kts | 34° |
| 2026-05-03 21:37 | -19.86361 | -43.53778 | 41155 ft | 470 kts | 34° |
| 2026-05-03 21:37 | -19.81165 | -43.49552 | 41155 ft | 470 kts | 34° |
| 2026-05-03 21:38 | -19.75976 | -43.45334 | 41147 ft | 470 kts | 35° |
| 2026-05-03 21:38 | -19.70785 | -43.41120 | 41147 ft | 470 kts | 35° |
| 2026-05-03 21:39 | -19.65586 | -43.36902 | 41143 ft | 470 kts | 35° |
| 2026-05-03 21:39 | -19.60381 | -43.32682 | 41137 ft | 470 kts | 35° |
| 2026-05-03 21:40 | -19.55221 | -43.28502 | 41128 ft | 470 kts | 35° |
| 2026-05-03 21:40 | -19.49988 | -43.24267 | 41125 ft | 470 kts | 35° |
| 2026-05-03 21:41 | -19.44791 | -43.20065 | 41116 ft | 470 kts | 35° |
| 2026-05-03 21:41 | -19.39593 | -43.15865 | 41103 ft | 470 kts | 35° |
| 2026-05-03 21:42 | -19.34435 | -43.11700 | 41094 ft | 470 kts | 35° |
| 2026-05-03 21:42 | -19.29236 | -43.07505 | 41087 ft | 470 kts | 35° |
| 2026-05-03 21:43 | -19.24043 | -43.03320 | 41085 ft | 469 kts | 35° |
| 2026-05-03 21:43 | -19.18840 | -42.99130 | 41078 ft | 469 kts | 35° |
| 2026-05-03 21:44 | -19.13646 | -42.94950 | 41066 ft | 469 kts | 35° |
| 2026-05-03 21:44 | -19.08448 | -42.90770 | 41072 ft | 469 kts | 35° |
| 2026-05-03 21:45 | -19.03256 | -42.86598 | 41074 ft | 469 kts | 35° |
| 2026-05-03 21:45 | -18.98058 | -42.82427 | 41077 ft | 469 kts | 35° |
| 2026-05-03 21:46 | -18.92864 | -42.78260 | 41071 ft | 469 kts | 35° |
| 2026-05-03 21:46 | -18.87658 | -42.74089 | 41063 ft | 469 kts | 35° |
| 2026-05-03 21:47 | -18.82461 | -42.69928 | 41064 ft | 469 kts | 35° |
| 2026-05-03 21:47 | -18.77268 | -42.65775 | 41072 ft | 469 kts | 35° |
| 2026-05-03 21:48 | -18.72064 | -42.61616 | 41071 ft | 469 kts | 35° |
| 2026-05-03 21:48 | -18.66869 | -42.57467 | 41077 ft | 469 kts | 35° |
| 2026-05-03 21:49 | -18.61668 | -42.53316 | 41068 ft | 468 kts | 35° |
| 2026-05-03 21:49 | -18.56475 | -42.49174 | 41074 ft | 468 kts | 35° |
| 2026-05-03 21:50 | -18.51311 | -42.45057 | 41070 ft | 468 kts | 35° |
| 2026-05-03 21:50 | -18.46116 | -42.40921 | 41065 ft | 468 kts | 35° |
| 2026-05-03 21:51 | -18.40919 | -42.36785 | 41056 ft | 468 kts | 35° |
| 2026-05-03 21:51 | -18.35719 | -42.32651 | 41053 ft | 468 kts | 35° |
| 2026-05-03 21:52 | -18.30529 | -42.28527 | 41055 ft | 468 kts | 35° |
| 2026-05-03 21:52 | -18.25344 | -42.24413 | 41059 ft | 468 kts | 35° |
| 2026-05-03 21:53 | -18.20147 | -42.20291 | 41063 ft | 468 kts | 35° |
| 2026-05-03 21:53 | -18.14948 | -42.16171 | 41064 ft | 468 kts | 35° |
| 2026-05-03 21:54 | -18.09754 | -42.12059 | 41064 ft | 468 kts | 35° |
| 2026-05-03 21:54 | -18.04555 | -42.07944 | 41063 ft | 468 kts | 35° |
| 2026-05-03 21:55 | -17.99360 | -42.03837 | 41064 ft | 468 kts | 35° |
| 2026-05-03 21:55 | -17.94162 | -41.99731 | 41063 ft | 468 kts | 35° |
| 2026-05-03 21:56 | -17.88960 | -41.95624 | 41063 ft | 467 kts | 35° |
| 2026-05-03 21:56 | -17.83762 | -41.91523 | 41062 ft | 467 kts | 35° |
| 2026-05-03 21:57 | -17.78564 | -41.87426 | 41064 ft | 468 kts | 35° |
| 2026-05-03 21:57 | -17.73363 | -41.83330 | 41064 ft | 468 kts | 35° |
| 2026-05-03 21:58 | -17.68190 | -41.79258 | 41065 ft | 467 kts | 35° |
| 2026-05-03 21:58 | -17.62991 | -41.75169 | 41062 ft | 467 kts | 35° |
| 2026-05-03 21:59 | -17.57787 | -41.71079 | 41065 ft | 467 kts | 35° |
| 2026-05-03 21:59 | -17.52586 | -41.66995 | 41063 ft | 467 kts | 35° |
| 2026-05-03 22:00 | -17.47389 | -41.62916 | 41063 ft | 467 kts | 35° |
| 2026-05-03 22:00 | -17.42141 | -41.58914 | 41062 ft | 466 kts | 29° |
| 2026-05-03 22:01 | -17.36272 | -41.56202 | 41066 ft | 460 kts | 14° |
| 2026-05-03 22:01 | -17.30072 | -41.54562 | 41065 ft | 460 kts | 11° |
| 2026-05-03 22:02 | -17.24878 | -41.53370 | 41063 ft | 460 kts | 10° |
| 2026-05-03 22:02 | -17.18619 | -41.51954 | 41064 ft | 460 kts | 10° |
| 2026-05-03 22:03 | -17.12373 | -41.50513 | 41063 ft | 460 kts | 10° |
| 2026-05-03 22:03 | -17.06125 | -41.49059 | 41064 ft | 460 kts | 10° |
| 2026-05-03 22:04 | -16.99884 | -41.47605 | 41063 ft | 460 kts | 11° |
| 2026-05-03 22:04 | -16.93638 | -41.46150 | 41063 ft | 460 kts | 11° |
| 2026-05-03 22:05 | -16.87393 | -41.44699 | 41064 ft | 460 kts | 11° |
| 2026-05-03 22:05 | -16.81151 | -41.43249 | 41063 ft | 460 kts | 11° |
| 2026-05-03 22:06 | -16.74906 | -41.41799 | 41062 ft | 460 kts | 11° |
| 2026-05-03 22:06 | -16.68661 | -41.40349 | 41066 ft | 460 kts | 11° |
| 2026-05-03 22:07 | -16.62420 | -41.38894 | 41073 ft | 459 kts | 11° |
| 2026-05-03 22:07 | -16.56228 | -41.37449 | 41076 ft | 460 kts | 11° |
| 2026-05-03 22:08 | -16.49995 | -41.35996 | 41074 ft | 459 kts | 11° |
| 2026-05-03 22:08 | -16.43754 | -41.34541 | 41072 ft | 459 kts | 11° |
| 2026-05-03 22:09 | -16.37515 | -41.33089 | 41071 ft | 459 kts | 11° |
| 2026-05-03 22:10 | -16.28159 | -41.30913 | 41059 ft | 459 kts | 11° |
| 2026-05-03 22:10 | -16.21913 | -41.29462 | 41055 ft | 459 kts | 11° |
| 2026-05-03 22:11 | -16.15681 | -41.28014 | 41054 ft | 459 kts | 11° |
| 2026-05-03 22:11 | -16.09441 | -41.26565 | 41051 ft | 459 kts | 11° |
| 2026-05-03 22:12 | -16.03242 | -41.25127 | 41046 ft | 459 kts | 11° |
| 2026-05-03 22:12 | -15.96998 | -41.23681 | 41050 ft | 459 kts | 11° |
| 2026-05-03 22:13 | -15.90763 | -41.22236 | 41054 ft | 459 kts | 11° |
| 2026-05-03 22:13 | -15.84527 | -41.20790 | 41054 ft | 459 kts | 11° |
| 2026-05-03 22:14 | -15.78294 | -41.19346 | 41055 ft | 459 kts | 11° |
| 2026-05-03 22:14 | -15.72058 | -41.17903 | 41054 ft | 459 kts | 11° |
| 2026-05-03 22:15 | -15.65813 | -41.16460 | 41054 ft | 459 kts | 11° |
| 2026-05-03 22:15 | -15.59574 | -41.15016 | 41055 ft | 459 kts | 11° |
| 2026-05-03 22:16 | -15.53341 | -41.13573 | 41055 ft | 459 kts | 11° |
| 2026-05-03 22:16 | -15.47101 | -41.12131 | 41053 ft | 459 kts | 11° |
| 2026-05-03 22:17 | -15.40847 | -41.10801 | 41055 ft | 459 kts | 9° |
| 2026-05-03 22:17 | -15.34568 | -41.09549 | 41054 ft | 459 kts | 9° |
| 2026-05-03 22:18 | -15.28300 | -41.08302 | 41049 ft | 459 kts | 9° |
| 2026-05-03 22:18 | -15.22022 | -41.07041 | 41045 ft | 459 kts | 9° |
| 2026-05-03 22:19 | -15.15722 | -41.05770 | 41045 ft | 464 kts | 9° |
| 2026-05-03 22:19 | -15.09341 | -41.04482 | 41045 ft | 470 kts | 9° |
| 2026-05-03 22:20 | -15.02887 | -41.03180 | 41047 ft | 475 kts | 9° |
| 2026-05-03 22:20 | -14.96377 | -41.01868 | 41043 ft | 477 kts | 9° |
| 2026-05-03 22:21 | -14.89916 | -41.00566 | 41046 ft | 476 kts | 9° |
| 2026-05-03 22:21 | -14.83371 | -40.99249 | 41042 ft | 476 kts | 9° |
| 2026-05-03 22:22 | -14.76899 | -40.97947 | 41048 ft | 476 kts | 9° |
| 2026-05-03 22:22 | -14.70397 | -40.96640 | 41042 ft | 476 kts | 9° |
| 2026-05-03 22:23 | -14.63896 | -40.95334 | 41041 ft | 476 kts | 9° |
| 2026-05-03 22:23 | -14.57393 | -40.94029 | 41045 ft | 476 kts | 9° |
| 2026-05-03 22:24 | -14.50886 | -40.92723 | 41045 ft | 476 kts | 9° |
| 2026-05-03 22:24 | -14.44382 | -40.91419 | 41043 ft | 476 kts | 9° |
| 2026-05-03 22:25 | -14.37879 | -40.90117 | 41046 ft | 476 kts | 9° |
| 2026-05-03 22:25 | -14.31374 | -40.88814 | 41046 ft | 476 kts | 9° |
| 2026-05-03 22:26 | -14.24876 | -40.87512 | 41044 ft | 476 kts | 9° |
| 2026-05-03 22:26 | -14.18379 | -40.86212 | 41043 ft | 476 kts | 9° |
| 2026-05-03 22:27 | -14.11880 | -40.84913 | 41044 ft | 476 kts | 9° |
| 2026-05-03 22:27 | -14.05372 | -40.83612 | 41046 ft | 476 kts | 9° |
| 2026-05-03 22:28 | -13.98871 | -40.82314 | 41046 ft | 476 kts | 10° |
| 2026-05-03 22:28 | -13.92369 | -40.81017 | 41047 ft | 476 kts | 10° |
| 2026-05-03 22:29 | -13.85878 | -40.79722 | 41044 ft | 476 kts | 10° |
| 2026-05-03 22:29 | -13.79382 | -40.78427 | 41044 ft | 475 kts | 10° |
| 2026-05-03 22:30 | -13.72967 | -40.76760 | 41044 ft | 477 kts | 20° |
| 2026-05-03 22:30 | -13.67046 | -40.73697 | 41048 ft | 478 kts | 28° |
| 2026-05-03 22:31 | -13.61292 | -40.70240 | 41042 ft | 479 kts | 30° |
| 2026-05-03 22:31 | -13.55585 | -40.66729 | 41044 ft | 479 kts | 30° |
| 2026-05-03 22:32 | -13.49862 | -40.63231 | 41044 ft | 479 kts | 30° |
| 2026-05-03 22:32 | -13.44166 | -40.59776 | 41045 ft | 478 kts | 29° |
| 2026-05-03 22:33 | -13.38424 | -40.56304 | 41047 ft | 479 kts | 29° |
| 2026-05-03 22:33 | -13.32689 | -40.52838 | 41048 ft | 478 kts | 29° |
| 2026-05-03 22:34 | -13.26911 | -40.49348 | 41044 ft | 479 kts | 29° |
| 2026-05-03 22:34 | -13.21219 | -40.45910 | 41042 ft | 476 kts | 29° |
| 2026-05-03 22:35 | -13.15596 | -40.42515 | 41043 ft | 463 kts | 29° |
| 2026-05-03 22:35 | -13.10060 | -40.39175 | 41047 ft | 461 kts | 29° |
| 2026-05-03 22:36 | -13.04526 | -40.35839 | 41046 ft | 461 kts | 29° |
| 2026-05-03 22:36 | -12.98985 | -40.32501 | 41047 ft | 462 kts | 29° |
| 2026-05-03 22:37 | -12.93452 | -40.29168 | 41046 ft | 462 kts | 29° |
| 2026-05-03 22:37 | -12.87915 | -40.25835 | 41045 ft | 462 kts | 29° |
| 2026-05-03 22:38 | -12.82380 | -40.22505 | 41037 ft | 462 kts | 29° |
| 2026-05-03 22:38 | -12.76834 | -40.19170 | 41035 ft | 462 kts | 29° |
| 2026-05-03 22:39 | -12.71292 | -40.15839 | 41039 ft | 462 kts | 29° |
| 2026-05-03 22:39 | -12.65761 | -40.12517 | 41032 ft | 462 kts | 29° |
| 2026-05-03 22:40 | -12.60219 | -40.09190 | 41031 ft | 462 kts | 29° |
| 2026-05-03 22:40 | -12.54678 | -40.05865 | 41039 ft | 462 kts | 28° |
| 2026-05-03 22:41 | -12.49124 | -40.02534 | 41038 ft | 462 kts | 28° |
| 2026-05-03 22:41 | -12.43582 | -39.99212 | 41033 ft | 462 kts | 28° |
| 2026-05-03 22:42 | -12.38038 | -39.95890 | 41023 ft | 462 kts | 28° |
| 2026-05-03 22:42 | -12.32495 | -39.92571 | 41026 ft | 462 kts | 28° |
| 2026-05-03 22:43 | -12.26945 | -39.89249 | 41025 ft | 462 kts | 28° |
| 2026-05-03 22:43 | -12.21393 | -39.85927 | 41028 ft | 462 kts | 28° |
| 2026-05-03 22:44 | -12.15845 | -39.82610 | 41026 ft | 462 kts | 28° |
| 2026-05-03 22:44 | -12.10325 | -39.79311 | 41029 ft | 462 kts | 28° |
| 2026-05-03 22:45 | -12.04775 | -39.75995 | 41023 ft | 462 kts | 28° |
| 2026-05-03 22:45 | -11.99227 | -39.72682 | 41018 ft | 462 kts | 28° |
| 2026-05-03 22:46 | -11.93641 | -39.69349 | 41024 ft | 462 kts | 28° |
| 2026-05-03 22:46 | -11.89028 | -39.66597 | 41030 ft | 462 kts | 28° |
| 2026-05-03 22:47 | -11.83471 | -39.63286 | 41026 ft | 462 kts | 28° |
| 2026-05-03 22:47 | -11.77016 | -39.59442 | 41012 ft | 462 kts | 28° |
| 2026-05-03 22:48 | -11.72359 | -39.56663 | 41028 ft | 462 kts | 28° |
| 2026-05-03 22:48 | -11.66845 | -39.53372 | 41019 ft | 462 kts | 28° |
| 2026-05-03 22:49 | -11.61254 | -39.50038 | 41014 ft | 463 kts | 28° |
| 2026-05-03 22:49 | -11.55736 | -39.46749 | 41013 ft | 463 kts | 28° |
| 2026-05-03 22:50 | -11.50183 | -39.43441 | 41013 ft | 463 kts | 28° |
| 2026-05-03 22:50 | -11.44614 | -39.40125 | 41031 ft | 463 kts | 28° |
| 2026-05-03 22:51 | -11.39054 | -39.36815 | 41013 ft | 463 kts | 28° |
| 2026-05-03 22:51 | -11.33492 | -39.33506 | 41012 ft | 463 kts | 28° |
| 2026-05-03 22:52 | -11.27924 | -39.30195 | 41012 ft | 463 kts | 28° |
| 2026-05-03 22:52 | -11.22360 | -39.26888 | 41023 ft | 463 kts | 28° |
| 2026-05-03 22:53 | -11.16794 | -39.23581 | 41026 ft | 463 kts | 28° |
| 2026-05-03 22:53 | -11.11222 | -39.20272 | 41020 ft | 463 kts | 28° |
| 2026-05-03 22:54 | -11.05656 | -39.16969 | 41016 ft | 463 kts | 28° |
| 2026-05-03 22:54 | -11.00083 | -39.13662 | 41016 ft | 463 kts | 28° |
| 2026-05-03 22:55 | -10.94517 | -39.10361 | 41017 ft | 463 kts | 28° |
| 2026-05-03 22:55 | -10.88940 | -39.07056 | 41013 ft | 463 kts | 28° |
| 2026-05-03 22:56 | -10.83369 | -39.03755 | 41005 ft | 463 kts | 28° |
| 2026-05-03 22:56 | -10.77801 | -39.00457 | 41006 ft | 463 kts | 28° |
| 2026-05-03 22:57 | -10.72226 | -38.97157 | 41007 ft | 463 kts | 28° |
| 2026-05-03 22:57 | -10.66660 | -38.93864 | 41006 ft | 463 kts | 28° |
| 2026-05-03 22:58 | -10.61078 | -38.90562 | 41012 ft | 464 kts | 28° |
| 2026-05-03 22:58 | -10.55540 | -38.87288 | 41005 ft | 464 kts | 28° |
| 2026-05-03 22:59 | -10.49963 | -38.83992 | 41005 ft | 464 kts | 28° |
| 2026-05-03 22:59 | -10.44387 | -38.80698 | 41008 ft | 463 kts | 28° |
| 2026-05-03 23:00 | -10.38810 | -38.77405 | 41006 ft | 464 kts | 28° |
| 2026-05-03 23:00 | -10.33233 | -38.74113 | 41013 ft | 464 kts | 28° |
| 2026-05-03 23:01 | -10.27665 | -38.70828 | 41010 ft | 464 kts | 28° |
| 2026-05-03 23:01 | -10.22080 | -38.67535 | 41011 ft | 464 kts | 28° |
| 2026-05-03 23:02 | -10.16500 | -38.64245 | 41020 ft | 464 kts | 28° |
| 2026-05-03 23:02 | -10.10916 | -38.60954 | 41011 ft | 464 kts | 28° |
| 2026-05-03 23:03 | -10.05340 | -38.57670 | 41017 ft | 464 kts | 28° |
| 2026-05-03 23:03 | -9.99759 | -38.54383 | 41013 ft | 464 kts | 28° |
| 2026-05-03 23:04 | -9.94190 | -38.51106 | 41013 ft | 464 kts | 28° |
| 2026-05-03 23:04 | -9.88600 | -38.47817 | 41016 ft | 463 kts | 28° |
| 2026-05-03 23:05 | -9.83018 | -38.44535 | 41015 ft | 463 kts | 28° |
| 2026-05-03 23:05 | -9.77441 | -38.41256 | 41016 ft | 463 kts | 28° |
| 2026-05-03 23:06 | -9.71860 | -38.37988 | 41012 ft | 463 kts | 28° |
| 2026-05-03 23:06 | -9.66272 | -38.34732 | 41019 ft | 463 kts | 28° |
| 2026-05-03 23:07 | -9.60683 | -38.31481 | 41015 ft | 463 kts | 28° |
| 2026-05-03 23:07 | -9.55127 | -38.28247 | 41014 ft | 463 kts | 28° |
| 2026-05-03 23:08 | -9.49539 | -38.24994 | 41015 ft | 463 kts | 28° |
| 2026-05-03 23:08 | -9.43943 | -38.21739 | 41015 ft | 463 kts | 28° |
| 2026-05-03 23:09 | -9.38354 | -38.18488 | 41014 ft | 463 kts | 28° |
| 2026-05-03 23:09 | -9.32769 | -38.15241 | 41012 ft | 463 kts | 28° |
| 2026-05-03 23:10 | -9.27177 | -38.11991 | 41019 ft | 463 kts | 28° |
| 2026-05-03 23:10 | -9.21583 | -38.08740 | 41013 ft | 463 kts | 28° |
| 2026-05-03 23:11 | -9.15994 | -38.05495 | 41013 ft | 463 kts | 28° |
| 2026-05-03 23:11 | -9.10405 | -38.02242 | 41012 ft | 463 kts | 28° |
| 2026-05-03 23:12 | -9.04824 | -37.98981 | 41017 ft | 463 kts | 28° |
| 2026-05-03 23:12 | -8.99232 | -37.95716 | 41014 ft | 464 kts | 28° |
| 2026-05-03 23:13 | -8.93637 | -37.92450 | 41013 ft | 465 kts | 28° |
| 2026-05-03 23:13 | -8.88047 | -37.89189 | 41013 ft | 465 kts | 28° |
| 2026-05-03 23:14 | -8.82444 | -37.85923 | 41025 ft | 465 kts | 28° |
| 2026-05-03 23:14 | -8.76838 | -37.82655 | 41030 ft | 465 kts | 28° |
| 2026-05-03 23:15 | -8.71232 | -37.79389 | 41013 ft | 465 kts | 28° |
| 2026-05-03 23:15 | -8.65630 | -37.76126 | 41030 ft | 465 kts | 28° |
| 2026-05-03 23:16 | -8.60028 | -37.72865 | 41034 ft | 465 kts | 28° |
| 2026-05-03 23:16 | -8.54466 | -37.69628 | 41028 ft | 465 kts | 28° |
| 2026-05-03 23:17 | -8.48859 | -37.66366 | 41029 ft | 465 kts | 28° |
| 2026-05-03 23:17 | -8.43262 | -37.63110 | 41030 ft | 465 kts | 28° |
| 2026-05-03 23:18 | -8.37664 | -37.59856 | 41030 ft | 465 kts | 28° |
| 2026-05-03 23:18 | -8.32065 | -37.56601 | 41031 ft | 465 kts | 28° |
| 2026-05-03 23:19 | -8.26454 | -37.53341 | 41030 ft | 465 kts | 28° |
| 2026-05-03 23:19 | -8.20848 | -37.50085 | 41029 ft | 465 kts | 28° |
| 2026-05-03 23:20 | -8.15243 | -37.46830 | 41021 ft | 465 kts | 28° |
| 2026-05-03 23:20 | -8.09634 | -37.43574 | 41026 ft | 465 kts | 28° |
| 2026-05-03 23:21 | -8.04029 | -37.40322 | 41030 ft | 465 kts | 28° |
| 2026-05-03 23:21 | -7.98423 | -37.37069 | 41028 ft | 465 kts | 28° |
| 2026-05-03 23:22 | -7.90006 | -37.32188 | 41016 ft | 465 kts | 28° |
| 2026-05-03 23:22 | -7.84392 | -37.28933 | 41022 ft | 465 kts | 28° |
| 2026-05-03 23:23 | -7.78782 | -37.25682 | 41030 ft | 465 kts | 28° |
| 2026-05-03 23:23 | -7.73171 | -37.22432 | 41030 ft | 465 kts | 28° |
| 2026-05-03 23:24 | -7.67565 | -37.19185 | 41038 ft | 465 kts | 28° |
| 2026-05-03 23:24 | -7.61954 | -37.15936 | 41034 ft | 465 kts | 28° |
| 2026-05-03 23:25 | -7.56335 | -37.12684 | 41031 ft | 465 kts | 28° |
| 2026-05-03 23:25 | -7.50723 | -37.09437 | 41022 ft | 465 kts | 28° |
| 2026-05-03 23:26 | -7.45105 | -37.06187 | 41026 ft | 465 kts | 28° |
| 2026-05-03 23:26 | -7.39491 | -37.02940 | 41032 ft | 466 kts | 28° |
| 2026-05-03 23:27 | -7.33909 | -36.99714 | 41026 ft | 466 kts | 28° |
| 2026-05-03 23:27 | -7.31101 | -36.98091 | 40885 ft | 466 kts | 28° |
| 2026-05-03 23:27 | -7.28284 | -36.96464 | 40361 ft | 466 kts | 28° |
| 2026-05-03 23:28 | -7.25458 | -36.94833 | 39693 ft | 470 kts | 28° |
| 2026-05-03 23:28 | -7.22623 | -36.93196 | 39118 ft | 471 kts | 28° |
| 2026-05-03 23:28 | -7.19773 | -36.91551 | 38540 ft | 471 kts | 28° |
| 2026-05-03 23:28 | -7.16922 | -36.89910 | 37942 ft | 473 kts | 28° |
| 2026-05-03 23:29 | -7.14065 | -36.88263 | 37359 ft | 473 kts | 28° |
| 2026-05-03 23:29 | -7.11215 | -36.86619 | 36751 ft | 473 kts | 28° |
| 2026-05-03 23:29 | -7.08365 | -36.84970 | 36109 ft | 474 kts | 29° |
| 2026-05-03 23:29 | -7.05500 | -36.83314 | 35429 ft | 475 kts | 29° |
| 2026-05-03 23:30 | -7.02626 | -36.81652 | 34706 ft | 476 kts | 29° |
| 2026-05-03 23:30 | -6.99753 | -36.79993 | 33981 ft | 478 kts | 29° |
| 2026-05-03 23:30 | -6.96867 | -36.78327 | 33228 ft | 479 kts | 29° |
| 2026-05-03 23:30 | -6.93976 | -36.76655 | 32455 ft | 480 kts | 29° |
| 2026-05-03 23:31 | -6.91068 | -36.74973 | 31641 ft | 482 kts | 29° |
| 2026-05-03 23:31 | -6.88166 | -36.73295 | 31009 ft | 479 kts | 30° |
| 2026-05-03 23:31 | -6.85289 | -36.71631 | 30500 ft | 474 kts | 30° |
| 2026-05-03 23:31 | -6.82448 | -36.69991 | 29967 ft | 469 kts | 30° |
| 2026-05-03 23:32 | -6.79633 | -36.68366 | 29430 ft | 464 kts | 30° |
| 2026-05-03 23:32 | -6.76846 | -36.66760 | 28876 ft | 459 kts | 30° |
| 2026-05-03 23:32 | -6.74088 | -36.65171 | 28328 ft | 456 kts | 30° |
| 2026-05-03 23:32 | -6.71346 | -36.63591 | 27768 ft | 452 kts | 30° |
| 2026-05-03 23:33 | -6.68634 | -36.62025 | 27240 ft | 449 kts | 30° |
| 2026-05-03 23:33 | -6.65930 | -36.60488 | 26678 ft | 444 kts | 30° |
| 2026-05-03 23:33 | -6.63261 | -36.58946 | 26119 ft | 441 kts | 33° |
| 2026-05-03 23:33 | -6.60918 | -36.56990 | 25563 ft | 436 kts | 48° |
| 2026-05-03 23:34 | -6.59005 | -36.54652 | 25025 ft | 431 kts | 53° |
| 2026-05-03 23:34 | -6.57199 | -36.52249 | 24508 ft | 429 kts | 53° |
| 2026-05-03 23:34 | -6.55420 | -36.49856 | 23951 ft | 425 kts | 53° |
| 2026-05-03 23:34 | -6.53660 | -36.47496 | 23427 ft | 420 kts | 54° |
| 2026-05-03 23:35 | -6.51914 | -36.45161 | 22921 ft | 415 kts | 53° |
| 2026-05-03 23:35 | -6.50770 | -36.43635 | 22588 ft | 412 kts | 53° |
| 2026-05-03 23:35 | -6.49046 | -36.41340 | 22077 ft | 408 kts | 53° |
| 2026-05-03 23:35 | -6.47349 | -36.39082 | 21565 ft | 403 kts | 53° |
| 2026-05-03 23:36 | -6.45672 | -36.36851 | 21061 ft | 399 kts | 53° |
| 2026-05-03 23:36 | -6.44002 | -36.34632 | 20584 ft | 395 kts | 53° |
| 2026-05-03 23:36 | -6.42356 | -36.32449 | 20075 ft | 391 kts | 53° |
| 2026-05-03 23:36 | -6.40717 | -36.30278 | 19585 ft | 387 kts | 53° |
| 2026-05-03 23:37 | -6.39103 | -36.28133 | 19106 ft | 383 kts | 53° |
| 2026-05-03 23:37 | -6.37506 | -36.26014 | 18632 ft | 379 kts | 53° |
| 2026-05-03 23:37 | -6.35935 | -36.23917 | 18166 ft | 375 kts | 53° |
| 2026-05-03 23:37 | -6.34368 | -36.21835 | 17707 ft | 372 kts | 53° |
| 2026-05-03 23:38 | -6.32804 | -36.19764 | 17224 ft | 370 kts | 53° |
| 2026-05-03 23:38 | -6.31256 | -36.17713 | 16767 ft | 368 kts | 53° |
| 2026-05-03 23:38 | -6.29717 | -36.15670 | 16296 ft | 365 kts | 53° |
| 2026-05-03 23:38 | -6.28189 | -36.13643 | 15839 ft | 363 kts | 53° |
| 2026-05-03 23:39 | -6.26679 | -36.11639 | 15371 ft | 360 kts | 53° |
| 2026-05-03 23:39 | -6.25169 | -36.09635 | 14896 ft | 358 kts | 53° |
| 2026-05-03 23:39 | -6.23674 | -36.07649 | 14426 ft | 356 kts | 53° |
| 2026-05-03 23:39 | -6.22187 | -36.05675 | 13977 ft | 353 kts | 53° |
| 2026-05-03 23:40 | -6.20708 | -36.03715 | 13541 ft | 349 kts | 53° |
| 2026-05-03 23:40 | -6.19246 | -36.01778 | 13072 ft | 347 kts | 53° |
| 2026-05-03 23:40 | -6.17795 | -35.99855 | 12630 ft | 344 kts | 53° |
| 2026-05-03 23:40 | -6.16355 | -35.97945 | 12182 ft | 341 kts | 53° |
| 2026-05-03 23:41 | -6.14930 | -35.96055 | 11752 ft | 338 kts | 53° |
| 2026-05-03 23:41 | -6.13514 | -35.94179 | 11314 ft | 335 kts | 53° |
| 2026-05-03 23:41 | -6.12109 | -35.92319 | 10879 ft | 333 kts | 53° |
| 2026-05-03 23:41 | -6.10715 | -35.90467 | 10415 ft | 330 kts | 53° |
| 2026-05-03 23:42 | -6.09370 | -35.88678 | 10142 ft | 309 kts | 53° |
| 2026-05-03 23:42 | -6.08112 | -35.87015 | 9929 ft | 289 kts | 53° |
| 2026-05-03 23:42 | -6.06937 | -35.85463 | 9808 ft | 269 kts | 53° |
| 2026-05-03 23:42 | -6.05830 | -35.83994 | 9670 ft | 260 kts | 54° |
| 2026-05-03 23:43 | -6.04743 | -35.82547 | 9475 ft | 258 kts | 54° |
| 2026-05-03 23:43 | -6.03661 | -35.81110 | 9312 ft | 257 kts | 53° |
| 2026-05-03 23:43 | -6.02580 | -35.79682 | 9064 ft | 257 kts | 53° |
| 2026-05-03 23:43 | -6.01502 | -35.78257 | 8764 ft | 256 kts | 54° |
| 2026-05-03 23:44 | -6.00431 | -35.76844 | 8456 ft | 253 kts | 54° |
| 2026-05-03 23:44 | -5.99368 | -35.75429 | 8166 ft | 253 kts | 54° |
| 2026-05-03 23:44 | -5.98318 | -35.74028 | 7870 ft | 249 kts | 54° |
| 2026-05-03 23:44 | -5.97280 | -35.72655 | 7576 ft | 250 kts | 54° |
| 2026-05-03 23:45 | -5.96215 | -35.71255 | 7286 ft | 250 kts | 54° |
| 2026-05-03 23:45 | -5.95161 | -35.69887 | 7041 ft | 247 kts | 53° |
| 2026-05-03 23:45 | -5.94076 | -35.68537 | 6681 ft | 252 kts | 52° |
| 2026-05-03 23:45 | -5.92967 | -35.67176 | 6362 ft | 250 kts | 52° |
| 2026-05-03 23:46 | -5.91869 | -35.65820 | 6079 ft | 251 kts | 52° |
| 2026-05-03 23:46 | -5.90768 | -35.64474 | 5822 ft | 249 kts | 52° |
| 2026-05-03 23:46 | -5.89680 | -35.63131 | 5445 ft | 249 kts | 51° |
| 2026-05-03 23:46 | -5.88580 | -35.61775 | 5387 ft | 259 kts | 53° |
| 2026-05-03 23:47 | -5.87456 | -35.60382 | 5357 ft | 254 kts | 52° |
| 2026-05-03 23:47 | -5.86369 | -35.59041 | 5286 ft | 241 kts | 52° |
| 2026-05-03 23:47 | -5.85335 | -35.57772 | 5179 ft | 229 kts | 52° |
| 2026-05-03 23:47 | -5.84241 | -35.56639 | 5000 ft | 223 kts | 39° |
| 2026-05-03 23:48 | -5.82868 | -35.55945 | 4735 ft | 223 kts | 18° |
| 2026-05-03 23:48 | -5.81369 | -35.55626 | 4554 ft | 215 kts | 11° |
| 2026-05-03 23:48 | -5.79929 | -35.55401 | 4421 ft | 205 kts | 10° |
| 2026-05-03 23:48 | -5.78559 | -35.55195 | 4264 ft | 194 kts | 10° |
| 2026-05-03 23:49 | -5.77280 | -35.54928 | 3979 ft | 184 kts | 19° |
| 2026-05-03 23:49 | -5.76134 | -35.54379 | 3531 ft | 183 kts | 38° |
| 2026-05-03 23:49 | -5.75247 | -35.53476 | 3132 ft | 183 kts | 58° |
| 2026-05-03 23:49 | -5.74743 | -35.52353 | 2935 ft | 168 kts | 78° |
| 2026-05-03 23:50 | -5.74624 | -35.51239 | 2736 ft | 156 kts | 94° |
| 2026-05-03 23:50 | -5.74745 | -35.50183 | 2470 ft | 149 kts | 101° |
| 2026-05-03 23:50 | -5.74907 | -35.49197 | 2205 ft | 140 kts | 101° |
| 2026-05-03 23:50 | -5.75065 | -35.48239 | 1962 ft | 140 kts | 99° |
| 2026-05-03 23:51 | -5.75221 | -35.47290 | 1969 ft | 138 kts | 100° |
| 2026-05-03 23:51 | -5.75382 | -35.46345 | 1973 ft | 139 kts | 100° |
| 2026-05-03 23:51 | -5.75537 | -35.45400 | 1806 ft | 136 kts | 101° |
| 2026-05-03 23:51 | -5.75686 | -35.44462 | 1585 ft | 136 kts | 97° |
| 2026-05-03 23:52 | -5.75833 | -35.43501 | 1407 ft | 139 kts | 101° |
| 2026-05-03 23:52 | -5.76003 | -35.42551 | 1217 ft | 135 kts | 100° |
| 2026-05-03 23:52 | -5.76162 | -35.41620 | 1036 ft | 134 kts | 100° |
| 2026-05-03 23:52 | -5.76315 | -35.40697 | 868 ft | 135 kts | 100° |
| 2026-05-03 23:53 | -5.76470 | -35.39786 | 717 ft | 133 kts | 100° |
| 2026-05-03 23:53 | -5.76623 | -35.38846 | 555 ft | 136 kts | 101° |
| 2026-05-03 23:53 | -5.76776 | -35.37911 | 350 ft | 135 kts | 100° |
| 2026-05-03 23:53 | -5.76917 | -35.37044 | 308 ft | 103 kts | 100° |
| 2026-05-03 23:54 | -5.76991 | -35.36610 | 305 ft | 37 kts | 99° |
| 2026-05-03 23:54 | -5.77028 | -35.36360 | 304 ft | 36 kts | 97° |
| 2026-05-03 23:54 | -5.77015 | -35.36121 | 307 ft | 31 kts | 69° |
| 2026-05-03 23:54 | -5.76964 | -35.36028 | 303 ft | 9 kts | 37° |
| 2026-05-03 23:55 | -5.76916 | -35.36048 | 302 ft | 11 kts | 303° |
| 2026-05-03 23:55 | -5.76894 | -35.36129 | 301 ft | 13 kts | 281° |
| 2026-05-03 23:55 | -5.76879 | -35.36221 | 301 ft | 13 kts | 278° |
| 2026-05-03 23:55 | -5.76864 | -35.36312 | 303 ft | 13 kts | 279° |
| 2026-05-03 23:56 | -5.76846 | -35.36425 | 305 ft | 19 kts | 278° |
| 2026-05-03 23:56 | -5.76825 | -35.36554 | 307 ft | 18 kts | 280° |
| 2026-05-03 23:56 | -5.76803 | -35.36672 | 307 ft | 17 kts | 282° |
| 2026-05-03 23:56 | -5.76782 | -35.36791 | 308 ft | 18 kts | 276° |
| 2026-05-03 23:57 | -5.76765 | -35.36923 | 303 ft | 20 kts | 279° |
| 2026-05-03 23:57 | -5.76743 | -35.37068 | 306 ft | 22 kts | 278° |
| 2026-05-03 23:57 | -5.76719 | -35.37206 | 303 ft | 17 kts | 281° |
| 2026-05-03 23:57 | -5.76660 | -35.37254 | 303 ft | 13 kts | 1° |
| 2026-05-03 23:58 | -5.76561 | -35.37245 | 295 ft | 12 kts | 0° |
| 2026-05-03 23:58 | -5.76503 | -35.37235 | 297 ft | 8 kts | 23° |
| 2026-05-03 23:58 | -5.76465 | -35.37216 | 293 ft | 2 kts | 28° |
| 2026-05-03 23:58 | -5.76463 | -35.37215 | 293 ft | 0 kts | 28° |